Etusivu
METAR-TAF:

METAR-TAF

Lentoasemat :

Arvidsjaur, Ruotsi

Leveyspiiri: 65-35-25N, Pituuspiiri: 019-16-55E, korkeus merenpinnasta: 379 m

Tämänhetkinen sää

Tämä raportti tehtiin 21 minuuttia sitten, kello 22.50 UTC
Tuuli 8 kn lännestä/luoteesta
Lämpötila -7°C
Kosteus 93%
Ilmanpaine 991 hPa
Näkyvyys: 5000 m
heikkoa lumisadetta

METAR: ESNX 172250Z AUTO 30008KT 5000 -SN VV019 M07/M08 Q0991 RESG

Aika: 00:11 (23:11 UTC)

Sääennuste

Tämä raportti tehtiin 5 tuntia ja 41 minuuttia sitten, kello 17.30 UTC
Ennuste voimassa 17. päivästä klo 18 UTC - 17. päivään klo 21 UTC
Tuuli 8 kn luoteesta
Näkyvyys: 7000 m
Hajonneita pilviä 4000 ft:n korkeudessa
heikkoa lumisadetta
Ajoittain
17. päivästä klo 18 UTC - 17. päivään klo 21 UTC
Näkyvyys: 2000 m
800 ft:n korkeudessa
lumisadetta

TAF: ESNX 171730Z 1718/1721 32008KT 7000 -SN BKN040 TEMPO 1718/1721 2000 SN VV008

Säähavainnot ja -ennusteet yli 4000 lentoasemalta (METAR- ja TAF-raportit).

Käytössä olevat sääasemat on merkitty karttaan keltaisilla ja punaisilla pisteillä.

Aseta hiiri pisteen päälle nähdäksesi sääaseman nimen.

Klikkaa sitten nähdäksesi säähavainnot ja -ennusteet.

Kartan vaihtaminen: klikkaa mustalla rastilla varustettuja vihreitä pisteitä, niin voit zoomata sisään; viivalla varustettua vihreää pistettä, niin voit zoomata ulos tai vihreitä nuolia, niin pääset viereisille kartoille.


METAR-TAF: